createdAt,value
2022-12-08T00:00:42.378Z,40.70
2022-12-08T00:01:42.388Z,40.50
2022-12-08T00:02:42.532Z,39.00
2022-12-08T00:03:42.451Z,44.80
2022-12-08T00:04:42.330Z,39.70
2022-12-08T00:05:42.357Z,43.60
2022-12-08T00:06:42.321Z,40.50
2022-12-08T00:07:42.388Z,43.00
2022-12-08T00:08:42.294Z,44.30
2022-12-08T00:09:42.302Z,44.90
2022-12-08T00:10:50.175Z,40.60
2022-12-08T00:11:42.265Z,44.90
2022-12-08T00:12:42.269Z,44.80
2022-12-08T00:13:42.235Z,44.00
2022-12-08T00:14:42.255Z,42.40
2022-12-08T00:15:42.241Z,44.20
2022-12-08T00:16:42.293Z,43.60
2022-12-08T00:17:42.198Z,44.40
2022-12-08T00:18:42.183Z,39.40
2022-12-08T00:19:42.904Z,43.10
2022-12-08T00:20:42.185Z,45.40
2022-12-08T00:21:42.149Z,43.80
2022-12-08T00:22:42.132Z,48.00
2022-12-08T00:23:42.444Z,44.20
2022-12-08T00:24:42.120Z,44.30
2022-12-08T00:25:42.118Z,46.90
2022-12-08T00:26:42.283Z,43.80
2022-12-08T00:27:42.103Z,44.50
2022-12-08T00:28:42.090Z,43.50
2022-12-08T00:29:42.070Z,45.30
2022-12-08T00:30:42.099Z,46.70
2022-12-08T00:31:42.114Z,45.40
2022-12-08T00:32:42.050Z,43.00
2022-12-08T00:33:42.039Z,47.50
2022-12-08T00:34:42.011Z,48.90
2022-12-08T00:35:43.379Z,48.70
2022-12-08T00:36:41.980Z,46.90
2022-12-08T00:37:41.975Z,47.00
2022-12-08T00:38:41.983Z,44.80
2022-12-08T00:39:41.951Z,47.10
2022-12-08T00:40:41.941Z,48.60
2022-12-08T00:41:41.932Z,45.40
2022-12-08T00:42:41.916Z,45.50
2022-12-08T00:43:41.911Z,47.30
2022-12-08T00:44:41.945Z,52.00
2022-12-08T00:45:41.933Z,45.80
2022-12-08T00:46:41.913Z,46.10
2022-12-08T00:47:41.866Z,46.20
2022-12-08T00:48:41.849Z,46.20
2022-12-08T00:49:41.848Z,47.00
2022-12-08T00:50:42.004Z,47.90
2022-12-08T00:51:41.818Z,45.80
2022-12-08T00:52:41.802Z,44.40
2022-12-08T00:53:41.798Z,46.70
2022-12-08T00:54:41.786Z,46.30
2022-12-08T00:55:41.803Z,45.40
2022-12-08T00:56:42.522Z,46.30
2022-12-08T00:57:41.753Z,47.30
2022-12-08T00:58:41.739Z,46.90
2022-12-08T00:59:41.748Z,47.50
2022-12-08T01:00:41.768Z,49.60
2022-12-08T01:01:41.785Z,44.20
2022-12-08T01:02:41.693Z,41.70
2022-12-08T01:03:41.773Z,43.10
2022-12-08T01:04:41.676Z,45.00
2022-12-08T01:05:41.668Z,39.70
2022-12-08T01:06:41.658Z,41.10
2022-12-08T01:07:41.726Z,42.90
2022-12-08T01:08:41.633Z,46.20
2022-12-08T01:09:41.625Z,46.50
2022-12-08T01:10:41.614Z,46.20
2022-12-08T01:11:41.852Z,41.90
2022-12-08T01:12:41.589Z,45.10
2022-12-08T01:13:41.965Z,41.40
2022-12-08T01:14:41.566Z,43.30
2022-12-08T01:15:41.583Z,46.30
2022-12-08T01:16:41.813Z,45.80
2022-12-08T01:17:41.526Z,42.50
2022-12-08T01:18:41.523Z,42.90
2022-12-08T01:19:41.536Z,43.10
2022-12-08T01:20:41.500Z,42.20
2022-12-08T01:21:41.508Z,44.00
2022-12-08T01:22:41.481Z,44.80
2022-12-08T01:23:41.465Z,43.50
2022-12-08T01:24:41.462Z,44.90
2022-12-08T01:25:41.475Z,43.80
2022-12-08T01:26:41.433Z,47.50
2022-12-08T01:27:41.420Z,49.70
2022-12-08T01:28:41.559Z,46.50
2022-12-08T01:29:41.435Z,47.70
2022-12-08T01:30:41.482Z,48.80
2022-12-08T01:31:41.406Z,47.60
2022-12-08T01:32:41.373Z,45.60
2022-12-08T01:33:41.350Z,45.50
2022-12-08T01:34:41.345Z,47.70
2022-12-08T01:35:41.338Z,49.20
2022-12-08T01:36:41.338Z,47.60
2022-12-08T01:37:41.346Z,52.40
2022-12-08T01:38:41.299Z,50.90
2022-12-08T01:39:41.289Z,50.80
2022-12-08T01:40:41.282Z,53.10
2022-12-08T01:41:41.263Z,46.00
2022-12-08T01:42:41.264Z,49.60
2022-12-08T01:43:41.277Z,46.20
2022-12-08T01:44:41.239Z,53.80
2022-12-08T01:45:43.038Z,50.50
2022-12-08T01:46:41.313Z,45.60
2022-12-08T01:47:41.251Z,47.90
2022-12-08T01:48:41.203Z,46.10
2022-12-08T01:49:41.224Z,49.50
2022-12-08T01:50:41.172Z,44.10
2022-12-08T01:51:41.153Z,43.30
2022-12-08T01:52:41.150Z,45.70
2022-12-08T01:53:41.138Z,50.60
2022-12-08T01:54:41.130Z,45.40
2022-12-08T01:55:41.132Z,44.50
2022-12-08T01:56:41.106Z,46.80
2022-12-08T01:57:41.111Z,46.30
2022-12-08T01:58:41.087Z,48.60
2022-12-08T01:59:41.069Z,47.40
2022-12-08T02:00:41.082Z,48.70
2022-12-08T02:01:41.137Z,44.30
2022-12-08T02:02:41.143Z,42.30
2022-12-08T02:03:41.019Z,44.20
2022-12-08T02:04:41.015Z,40.60
2022-12-08T02:05:41.000Z,41.20
2022-12-08T02:06:41.013Z,40.40
2022-12-08T02:07:41.050Z,44.00
2022-12-08T02:08:40.963Z,42.90
2022-12-08T02:09:40.958Z,42.50
2022-12-08T02:10:40.940Z,39.80
2022-12-08T02:11:40.942Z,41.40
2022-12-08T02:12:40.947Z,36.10
2022-12-08T02:13:40.915Z,37.10
2022-12-08T02:14:40.914Z,42.30
2022-12-08T02:15:40.916Z,38.80
2022-12-08T02:16:40.875Z,38.00
2022-12-08T02:17:40.869Z,37.30
2022-12-08T02:18:40.905Z,36.30
2022-12-08T02:19:40.849Z,35.80
2022-12-08T02:20:40.833Z,38.70
2022-12-08T02:21:40.823Z,37.10
2022-12-08T02:22:40.811Z,36.40
2022-12-08T02:23:40.802Z,36.00
2022-12-08T02:24:40.807Z,36.80
2022-12-08T02:25:40.807Z,38.00
2022-12-08T02:26:40.765Z,35.30
2022-12-08T02:27:40.761Z,34.30
2022-12-08T02:28:40.748Z,35.90
2022-12-08T02:29:40.754Z,36.70
2022-12-08T02:30:40.781Z,34.50
2022-12-08T02:31:40.712Z,34.60
2022-12-08T02:32:40.706Z,35.30
2022-12-08T02:33:40.698Z,34.50
2022-12-08T02:34:40.703Z,34.40
2022-12-08T02:35:40.665Z,36.90
2022-12-08T02:36:40.687Z,33.10
2022-12-08T02:37:40.694Z,35.30
2022-12-08T02:38:40.654Z,34.00
2022-12-08T02:39:40.648Z,36.70
2022-12-08T02:40:40.626Z,35.30
2022-12-08T02:41:40.603Z,32.30
2022-12-08T02:42:40.599Z,38.00
2022-12-08T02:43:40.582Z,32.90
2022-12-08T02:44:40.603Z,33.90
2022-12-08T02:45:40.559Z,31.30
2022-12-08T02:46:40.611Z,34.00
2022-12-08T02:47:40.573Z,38.30
2022-12-08T02:48:40.533Z,30.70
2022-12-08T02:49:40.522Z,35.40
2022-12-08T02:50:40.536Z,35.10
2022-12-08T02:51:40.525Z,31.30
2022-12-08T02:52:40.491Z,31.90
2022-12-08T02:53:40.514Z,32.60
2022-12-08T02:54:40.488Z,31.60
2022-12-08T02:55:42.011Z,32.80
2022-12-08T02:56:40.472Z,28.90
2022-12-08T02:57:40.450Z,31.30
2022-12-08T02:58:40.422Z,33.00
2022-12-08T02:59:40.436Z,30.90
2022-12-08T03:00:40.422Z,33.20
2022-12-08T03:01:40.468Z,34.40
2022-12-08T03:02:40.476Z,33.00
2022-12-08T03:03:40.365Z,33.70
2022-12-08T03:04:40.359Z,32.20
2022-12-08T03:05:40.362Z,31.60
2022-12-08T03:06:40.333Z,32.00
2022-12-08T03:07:40.400Z,33.40
2022-12-08T03:08:40.309Z,33.20
2022-12-08T03:09:40.344Z,31.20
2022-12-08T03:10:40.323Z,34.70
2022-12-08T03:11:40.279Z,33.00
2022-12-08T03:12:40.263Z,35.30
2022-12-08T03:13:40.261Z,30.80
2022-12-08T03:14:40.261Z,31.90
2022-12-08T03:15:40.349Z,34.40
2022-12-08T03:16:40.223Z,33.00
2022-12-08T03:17:40.231Z,30.20
2022-12-08T03:18:40.197Z,33.70
2022-12-08T03:19:40.194Z,32.60
2022-12-08T03:20:40.222Z,33.60
2022-12-08T03:21:40.172Z,34.10
2022-12-08T03:22:40.153Z,34.90
2022-12-08T03:23:40.279Z,34.00
2022-12-08T03:24:40.182Z,32.80
2022-12-08T03:25:40.240Z,33.70
2022-12-08T03:26:40.134Z,34.80
2022-12-08T03:27:40.138Z,37.90
2022-12-08T03:28:40.111Z,35.00
2022-12-08T03:29:41.017Z,34.30
2022-12-08T03:30:40.157Z,35.10
2022-12-08T03:31:40.092Z,34.40
2022-12-08T03:32:40.056Z,34.30
2022-12-08T03:33:40.045Z,36.90
2022-12-08T03:34:40.043Z,35.80
2022-12-08T03:35:40.036Z,38.10
2022-12-08T03:36:40.011Z,37.00
2022-12-08T03:37:40.051Z,36.60
2022-12-08T03:38:39.976Z,38.80
2022-12-08T03:39:39.970Z,41.60
2022-12-08T03:40:39.977Z,37.80
2022-12-08T03:41:40.569Z,40.10
2022-12-08T03:42:39.934Z,36.80
2022-12-08T03:43:39.934Z,40.70
2022-12-08T03:44:39.933Z,39.70
2022-12-08T03:45:39.931Z,40.50
2022-12-08T03:46:39.892Z,40.50
2022-12-08T03:47:39.902Z,39.60
2022-12-08T03:48:39.875Z,42.20
2022-12-08T03:49:39.858Z,40.50
2022-12-08T03:50:39.864Z,40.70
2022-12-08T03:51:39.839Z,38.80
2022-12-08T03:52:39.844Z,37.40
2022-12-08T03:53:39.817Z,38.60
2022-12-08T03:54:39.804Z,42.00
2022-12-08T03:55:39.858Z,39.60
2022-12-08T03:56:39.786Z,35.70
2022-12-08T03:57:39.772Z,38.00
2022-12-08T03:58:39.835Z,36.80
2022-12-08T03:59:39.809Z,36.60
2022-12-08T04:00:39.756Z,35.30
2022-12-08T04:01:39.778Z,38.70
2022-12-08T04:02:39.751Z,36.60
2022-12-08T04:03:39.708Z,38.00
2022-12-08T04:04:39.692Z,37.30
2022-12-08T04:05:39.709Z,35.90
2022-12-08T04:06:39.671Z,38.20
2022-12-08T04:07:39.719Z,38.20
2022-12-08T04:08:39.653Z,35.40
2022-12-08T04:09:39.740Z,33.10
2022-12-08T04:10:39.651Z,35.60
2022-12-08T04:11:39.614Z,36.70
2022-12-08T04:12:39.607Z,36.50
2022-12-08T04:13:39.591Z,35.90
2022-12-08T04:14:39.609Z,42.20
2022-12-08T04:15:39.622Z,38.20
2022-12-08T04:16:39.562Z,38.00
2022-12-08T04:17:39.548Z,38.10
2022-12-08T04:18:39.543Z,35.30
2022-12-08T04:19:39.528Z,36.20
2022-12-08T04:20:39.538Z,35.50
2022-12-08T04:21:39.503Z,34.10
2022-12-08T04:22:39.498Z,36.90
2022-12-08T04:23:39.484Z,37.50
2022-12-08T04:24:39.477Z,42.50
2022-12-08T04:25:39.496Z,42.00
2022-12-08T04:26:39.457Z,43.30
2022-12-08T04:27:39.437Z,40.80
2022-12-08T04:28:39.466Z,49.30
2022-12-08T04:29:39.531Z,41.80
2022-12-08T04:30:39.433Z,40.90
2022-12-08T04:31:39.502Z,45.10
2022-12-08T04:32:42.928Z,46.10
2022-12-08T04:33:39.380Z,43.50
2022-12-08T04:34:39.363Z,48.40
2022-12-08T04:35:39.375Z,43.00
2022-12-08T04:36:39.337Z,45.00
2022-12-08T04:37:39.353Z,42.90
2022-12-08T04:38:39.319Z,46.80
2022-12-08T04:39:39.397Z,45.50
2022-12-08T04:40:39.328Z,44.60
2022-12-08T04:41:39.305Z,43.90
2022-12-08T04:42:39.271Z,48.80
2022-12-08T04:43:39.266Z,45.10
2022-12-08T04:44:39.362Z,50.60
2022-12-08T04:45:39.263Z,53.30
2022-12-08T04:46:43.373Z,48.30
2022-12-08T04:47:39.237Z,46.90
2022-12-08T04:48:39.238Z,46.40
2022-12-08T04:49:39.198Z,48.80
2022-12-08T04:50:39.205Z,49.90
2022-12-08T04:51:39.198Z,50.40
2022-12-08T04:52:39.165Z,50.40
2022-12-08T04:53:44.883Z,51.30
2022-12-08T04:54:39.145Z,50.10
2022-12-08T04:55:39.158Z,47.80
2022-12-08T04:56:39.124Z,46.10
2022-12-08T04:57:39.125Z,47.40
2022-12-08T04:58:39.100Z,49.10
2022-12-08T04:59:39.093Z,47.60
2022-12-08T05:00:39.116Z,47.60
2022-12-08T05:01:39.258Z,50.80
2022-12-08T05:02:39.081Z,49.50
2022-12-08T05:03:39.045Z,49.00
2022-12-08T05:04:39.029Z,49.00
2022-12-08T05:05:39.057Z,47.40
2022-12-08T05:06:39.006Z,44.10
2022-12-08T05:07:39.118Z,45.50
2022-12-08T05:08:39.003Z,45.60
2022-12-08T05:09:38.985Z,41.20
2022-12-08T05:10:39.038Z,46.10
2022-12-08T05:11:41.716Z,43.90
2022-12-08T05:12:38.954Z,43.00
2022-12-08T05:13:38.933Z,42.20
2022-12-08T05:14:38.970Z,42.00
2022-12-08T05:15:38.933Z,41.00
2022-12-08T05:16:38.946Z,38.50
2022-12-08T05:17:38.886Z,38.60
2022-12-08T05:18:38.924Z,39.80
2022-12-08T05:19:38.865Z,42.70
2022-12-08T05:20:38.892Z,42.70
2022-12-08T05:21:38.843Z,41.40
2022-12-08T05:22:38.861Z,38.80
2022-12-08T05:23:38.824Z,34.70
2022-12-08T05:24:44.013Z,38.20
2022-12-08T05:25:38.838Z,42.80
2022-12-08T05:26:38.812Z,40.40
2022-12-08T05:27:38.783Z,41.60
2022-12-08T05:28:41.732Z,39.40
2022-12-08T05:29:38.754Z,41.10
2022-12-08T05:30:38.763Z,42.40
2022-12-08T05:31:38.877Z,41.70
2022-12-08T05:32:38.729Z,41.50
2022-12-08T05:33:38.729Z,38.90
2022-12-08T05:34:38.705Z,39.80
2022-12-08T05:35:38.694Z,40.80
2022-12-08T05:36:38.730Z,40.60
2022-12-08T05:37:38.667Z,35.00
2022-12-08T05:38:38.684Z,35.00
2022-12-08T05:39:38.648Z,37.50
2022-12-08T05:40:38.649Z,35.80
2022-12-08T05:41:38.657Z,37.80
2022-12-08T05:42:38.615Z,36.10
2022-12-08T05:43:38.693Z,40.20
2022-12-08T05:44:38.596Z,33.10
2022-12-08T05:45:38.653Z,36.80
2022-12-08T05:46:38.616Z,39.20
2022-12-08T05:47:38.560Z,37.80
2022-12-08T05:48:38.582Z,36.10
2022-12-08T05:49:38.557Z,33.20
2022-12-08T05:50:38.528Z,34.60
2022-12-08T05:51:38.535Z,35.10
2022-12-08T05:52:38.532Z,35.90
2022-12-08T05:53:38.502Z,35.20
2022-12-08T05:54:38.570Z,36.30
2022-12-08T05:55:38.467Z,33.50
2022-12-08T05:56:38.487Z,33.20
2022-12-08T05:57:38.460Z,35.30
2022-12-08T05:58:38.438Z,39.60
2022-12-08T05:59:38.431Z,35.10
2022-12-08T06:00:38.416Z,32.60
2022-12-08T06:01:38.496Z,32.30
2022-12-08T06:02:38.582Z,32.30
2022-12-08T06:03:38.417Z,34.20
2022-12-08T06:04:38.372Z,34.70
2022-12-08T06:05:38.355Z,35.30
2022-12-08T06:06:38.384Z,35.70
2022-12-08T06:07:38.404Z,39.30
2022-12-08T06:08:38.345Z,39.20
2022-12-08T06:09:38.349Z,36.70
2022-12-08T06:10:38.306Z,37.00
2022-12-08T06:11:38.316Z,39.50
2022-12-08T06:12:38.277Z,38.60
2022-12-08T06:13:38.280Z,41.40
2022-12-08T06:14:38.293Z,38.50
2022-12-08T06:15:38.249Z,39.20
2022-12-08T06:16:38.283Z,38.40
2022-12-08T06:17:38.231Z,40.50
2022-12-08T06:18:38.212Z,41.40
2022-12-08T06:19:38.208Z,37.10
2022-12-08T06:20:38.191Z,39.50
2022-12-08T06:21:38.454Z,38.60
2022-12-08T06:22:38.168Z,41.10
2022-12-08T06:23:38.169Z,38.60
2022-12-08T06:24:38.153Z,39.50
2022-12-08T06:25:38.143Z,40.30
2022-12-08T06:26:38.148Z,38.20
2022-12-08T06:27:38.119Z,40.10
2022-12-08T06:28:38.112Z,37.90
2022-12-08T06:29:38.099Z,38.00
2022-12-08T06:30:38.100Z,39.30
2022-12-08T06:31:38.298Z,35.60
2022-12-08T06:32:38.063Z,40.70
2022-12-08T06:33:38.055Z,39.10
2022-12-08T06:34:38.052Z,37.70
2022-12-08T06:35:38.032Z,39.50
2022-12-08T06:36:38.075Z,37.60
2022-12-08T06:37:38.060Z,38.70
2022-12-08T06:38:41.853Z,34.40
2022-12-08T06:39:37.996Z,35.70
2022-12-08T06:40:38.010Z,37.30
2022-12-08T06:41:37.997Z,36.70
2022-12-08T06:42:37.960Z,35.00
2022-12-08T06:43:37.947Z,38.50
2022-12-08T06:44:37.942Z,35.70
2022-12-08T06:45:37.988Z,34.10
2022-12-08T06:46:37.959Z,33.90
2022-12-08T06:47:37.907Z,34.70
2022-12-08T06:48:37.886Z,33.20
2022-12-08T06:49:37.888Z,32.80
2022-12-08T06:50:37.878Z,32.90
2022-12-08T06:51:37.883Z,35.80
2022-12-08T06:52:47.298Z,32.30
2022-12-08T06:53:37.881Z,37.40
2022-12-08T06:54:37.836Z,35.30
2022-12-08T06:56:37.831Z,31.50
2022-12-08T06:57:37.796Z,31.10
2022-12-08T06:58:37.809Z,31.70
2022-12-08T06:59:37.791Z,35.20
2022-12-08T07:00:37.779Z,32.70
2022-12-08T07:01:37.845Z,33.00
2022-12-08T07:02:37.799Z,31.40
2022-12-08T07:03:37.733Z,31.30
2022-12-08T07:04:37.729Z,31.60
2022-12-08T07:05:37.713Z,35.20
2022-12-08T07:06:37.708Z,31.00
2022-12-08T07:07:37.730Z,29.70
2022-12-08T07:08:37.682Z,32.10
2022-12-08T07:09:37.668Z,31.60
2022-12-08T07:10:37.685Z,29.70
2022-12-08T07:11:37.653Z,28.00
2022-12-08T07:12:37.639Z,26.80
2022-12-08T07:13:37.615Z,29.50
2022-12-08T07:14:37.606Z,30.20
2022-12-08T07:15:37.594Z,31.80
2022-12-08T07:16:37.698Z,28.20
2022-12-08T07:17:37.573Z,28.80
2022-12-08T07:18:37.572Z,29.10
2022-12-08T07:19:37.559Z,30.10
2022-12-08T07:20:37.538Z,28.00
2022-12-08T07:21:37.561Z,34.50
2022-12-08T07:22:37.551Z,30.40
2022-12-08T07:23:37.500Z,29.40
2022-12-08T07:24:37.539Z,29.40
2022-12-08T07:25:37.485Z,27.90
2022-12-08T07:26:37.495Z,26.80
2022-12-08T07:27:37.458Z,26.30
2022-12-08T07:28:37.456Z,26.80
2022-12-08T07:29:37.440Z,26.50
2022-12-08T07:30:37.465Z,29.80
2022-12-08T07:31:37.434Z,29.00
2022-12-08T07:32:37.406Z,25.60
2022-12-08T07:33:37.411Z,27.30
2022-12-08T07:34:37.388Z,29.80
2022-12-08T07:35:37.372Z,28.30
2022-12-08T07:36:37.393Z,23.90
2022-12-08T07:37:37.357Z,23.30
2022-12-08T07:38:37.344Z,22.50
2022-12-08T07:39:37.370Z,22.80
2022-12-08T07:40:37.321Z,19.90
2022-12-08T07:41:37.330Z,21.00
2022-12-08T07:42:37.308Z,22.20
2022-12-08T07:43:37.282Z,22.90
2022-12-08T07:44:37.401Z,21.00
2022-12-08T07:45:37.268Z,20.70
2022-12-08T07:46:37.350Z,21.20
2022-12-08T07:47:37.238Z,21.20
2022-12-08T07:48:37.284Z,21.20
2022-12-08T07:49:37.218Z,23.00
2022-12-08T07:50:37.242Z,21.30
2022-12-08T07:51:37.224Z,21.20
2022-12-08T07:52:37.188Z,21.70
2022-12-08T07:53:37.176Z,21.10
2022-12-08T07:54:37.168Z,19.60
2022-12-08T07:55:37.175Z,20.40
2022-12-08T07:56:37.166Z,21.00
2022-12-08T07:57:37.157Z,21.90
2022-12-08T07:58:37.144Z,23.20
2022-12-08T07:59:37.115Z,21.00
2022-12-08T08:00:37.162Z,20.30
2022-12-08T08:01:37.353Z,21.10
2022-12-08T08:02:37.187Z,21.20
2022-12-08T08:03:37.058Z,21.10
2022-12-08T08:04:37.294Z,21.20
2022-12-08T08:05:37.041Z,22.60
2022-12-08T08:06:37.055Z,20.00
2022-12-08T08:07:37.053Z,19.90
2022-12-08T08:08:37.011Z,19.80
2022-12-08T08:09:37.004Z,20.30
2022-12-08T08:10:36.991Z,19.40
2022-12-08T08:11:37.003Z,18.20
2022-12-08T08:12:36.962Z,17.90
2022-12-08T08:13:36.971Z,18.80
2022-12-08T08:14:36.941Z,20.00
2022-12-08T08:15:37.082Z,19.20
2022-12-08T08:16:38.735Z,17.70
2022-12-08T08:17:37.135Z,19.70
2022-12-08T08:18:36.948Z,18.00
2022-12-08T08:19:36.896Z,18.90
2022-12-08T08:20:36.954Z,18.90
2022-12-08T08:21:45.520Z,19.80
2022-12-08T08:22:36.908Z,19.20
2022-12-08T08:23:36.846Z,18.40
2022-12-08T08:24:41.597Z,18.50
2022-12-08T08:25:36.833Z,17.70
2022-12-08T08:26:36.918Z,17.50
2022-12-08T08:27:36.811Z,20.30
2022-12-08T08:28:36.883Z,18.90
2022-12-08T08:29:36.784Z,19.00
2022-12-08T08:30:36.771Z,19.20
2022-12-08T08:31:36.892Z,18.70
2022-12-08T08:32:36.746Z,17.30
2022-12-08T08:33:36.740Z,16.90
2022-12-08T08:34:36.723Z,17.80
2022-12-08T08:35:36.714Z,16.70
2022-12-08T08:36:36.731Z,17.30
2022-12-08T08:37:36.696Z,17.70
2022-12-08T08:38:36.680Z,16.50
2022-12-08T08:39:36.679Z,18.40
2022-12-08T08:40:36.661Z,16.80
2022-12-08T08:41:36.650Z,16.80
2022-12-08T08:42:36.671Z,16.90
2022-12-08T08:43:38.542Z,17.10
2022-12-08T08:44:36.616Z,15.30
2022-12-08T08:45:36.640Z,14.30
2022-12-08T08:46:36.645Z,14.80
2022-12-08T08:47:36.590Z,14.20
2022-12-08T08:48:36.596Z,15.50
2022-12-08T08:49:36.567Z,14.80
2022-12-08T08:50:37.813Z,14.30
2022-12-08T08:51:36.537Z,13.10
2022-12-08T08:52:36.531Z,13.90
2022-12-08T08:53:36.600Z,11.60
2022-12-08T08:54:36.508Z,12.90
2022-12-08T08:55:36.492Z,14.00
2022-12-08T08:56:36.482Z,12.70
2022-12-08T08:57:36.474Z,12.60
2022-12-08T08:58:36.469Z,13.50
2022-12-08T08:59:36.483Z,13.90
2022-12-08T09:00:36.444Z,13.30
2022-12-08T09:01:36.469Z,12.60
2022-12-08T09:02:36.417Z,12.60
2022-12-08T09:03:36.407Z,12.00
2022-12-08T09:04:36.717Z,12.00
2022-12-08T09:05:36.457Z,12.60
2022-12-08T09:06:36.424Z,12.60
2022-12-08T09:07:36.482Z,12.80
2022-12-08T09:08:36.350Z,13.40
2022-12-08T09:09:36.341Z,13.20
2022-12-08T09:10:36.351Z,11.80
2022-12-08T09:11:36.320Z,13.50
2022-12-08T09:12:36.301Z,13.40
2022-12-08T09:13:36.298Z,12.00
2022-12-08T09:14:36.280Z,13.70
2022-12-08T09:15:36.372Z,13.30
2022-12-08T09:16:41.797Z,11.90
2022-12-08T09:17:36.365Z,12.60
2022-12-08T09:18:36.309Z,14.00
2022-12-08T09:19:36.235Z,13.40
2022-12-08T09:20:36.235Z,14.40
2022-12-08T09:21:36.207Z,12.70
2022-12-08T09:22:36.216Z,12.30
2022-12-08T09:23:36.189Z,13.70
2022-12-08T09:24:36.172Z,15.80
2022-12-08T09:25:36.166Z,15.00
2022-12-08T09:26:36.151Z,13.10
2022-12-08T09:27:36.175Z,13.80
2022-12-08T09:28:36.125Z,13.40
2022-12-08T09:29:36.600Z,12.80
2022-12-08T09:30:36.116Z,11.70
2022-12-08T09:31:36.147Z,12.50
2022-12-08T09:32:36.085Z,13.40
2022-12-08T09:33:36.114Z,10.10
2022-12-08T09:34:36.065Z,9.90
2022-12-08T09:35:36.099Z,10.40
2022-12-08T09:36:36.042Z,11.70
2022-12-08T09:37:36.033Z,10.10
2022-12-08T09:38:36.018Z,11.90
2022-12-08T09:39:36.039Z,10.80
2022-12-08T09:40:35.997Z,10.40
2022-12-08T09:41:41.749Z,10.00
2022-12-08T09:42:36.000Z,11.00
2022-12-08T09:43:35.970Z,10.00
2022-12-08T09:44:35.954Z,12.10
2022-12-08T09:45:35.969Z,12.10
2022-12-08T09:46:36.016Z,10.20
2022-12-08T09:47:36.511Z,11.50
2022-12-08T09:48:35.911Z,11.20
2022-12-08T09:49:35.902Z,11.10
2022-12-08T09:50:35.885Z,10.90
2022-12-08T09:51:35.890Z,10.80
2022-12-08T09:52:35.893Z,11.20
2022-12-08T09:53:36.546Z,12.20
2022-12-08T09:54:35.843Z,11.20
2022-12-08T09:55:35.834Z,12.20
2022-12-08T09:56:35.819Z,11.90
2022-12-08T09:57:35.835Z,12.00
2022-12-08T09:58:35.800Z,11.70
2022-12-08T09:59:35.796Z,12.30
2022-12-08T10:00:35.776Z,11.80
2022-12-08T10:01:35.841Z,12.50
2022-12-08T10:02:35.752Z,11.40
2022-12-08T10:03:35.748Z,12.70
2022-12-08T10:04:35.782Z,11.80
2022-12-08T10:05:35.771Z,12.40
2022-12-08T10:06:35.728Z,11.70
2022-12-08T10:07:35.701Z,12.80
2022-12-08T10:08:35.718Z,12.00
2022-12-08T10:09:35.672Z,11.40
2022-12-08T10:10:35.668Z,12.30
2022-12-08T10:11:35.674Z,12.10
2022-12-08T10:12:35.651Z,12.50
2022-12-08T10:13:35.628Z,11.90
2022-12-08T10:14:35.625Z,11.80
2022-12-08T10:15:35.614Z,11.80
2022-12-08T10:16:35.718Z,11.20
2022-12-08T10:17:35.584Z,11.80
2022-12-08T10:18:35.584Z,12.60
2022-12-08T10:19:35.576Z,12.30
2022-12-08T10:20:35.559Z,12.40
2022-12-08T10:21:35.542Z,13.90
2022-12-08T10:22:39.830Z,12.00
2022-12-08T10:23:35.526Z,12.80
2022-12-08T10:24:35.533Z,11.20
2022-12-08T10:25:35.499Z,11.80
2022-12-08T10:26:35.487Z,12.40
2022-12-08T10:27:35.499Z,12.50
2022-12-08T10:28:40.050Z,11.50
2022-12-08T10:29:35.460Z,11.90
2022-12-08T10:30:35.446Z,11.40
2022-12-08T10:31:35.568Z,11.90
2022-12-08T10:32:35.458Z,10.20
2022-12-08T10:33:35.411Z,10.10
2022-12-08T10:34:35.403Z,12.00
2022-12-08T10:35:35.386Z,10.60
2022-12-08T10:36:35.384Z,10.50
2022-12-08T10:37:35.365Z,10.40
2022-12-08T10:38:35.381Z,12.20
2022-12-08T10:39:35.351Z,10.60
2022-12-08T10:40:37.990Z,10.70
2022-12-08T10:41:35.345Z,11.20
2022-12-08T10:42:35.313Z,10.30
2022-12-08T10:43:35.298Z,9.90
2022-12-08T10:44:35.314Z,10.40
2022-12-08T10:45:35.275Z,9.80
2022-12-08T10:46:35.324Z,10.20
2022-12-08T10:47:35.254Z,10.60
2022-12-08T10:48:35.249Z,11.40
2022-12-08T10:49:35.231Z,10.00
2022-12-08T10:50:35.255Z,11.50
2022-12-08T10:51:35.212Z,9.50
2022-12-08T10:52:35.207Z,9.90
2022-12-08T10:53:35.184Z,11.20
2022-12-08T10:54:35.183Z,10.50
2022-12-08T10:55:35.205Z,9.40
2022-12-08T10:56:35.163Z,10.20
2022-12-08T10:57:35.142Z,10.50
2022-12-08T10:58:35.134Z,10.00
2022-12-08T10:59:35.118Z,10.40
2022-12-08T11:00:35.360Z,11.00
2022-12-08T11:01:35.197Z,10.40
2022-12-08T11:02:35.201Z,10.10
2022-12-08T11:03:35.075Z,9.40
2022-12-08T11:04:35.071Z,9.20
2022-12-08T11:05:35.058Z,10.00
2022-12-08T11:06:35.069Z,10.60
2022-12-08T11:07:35.036Z,9.50
2022-12-08T11:08:35.120Z,9.50
2022-12-08T11:09:35.014Z,9.00
2022-12-08T11:10:35.000Z,8.50
2022-12-08T11:11:35.013Z,8.70
2022-12-08T11:12:34.973Z,8.40
2022-12-08T11:13:34.971Z,8.00
2022-12-08T11:14:34.955Z,10.70
2022-12-08T11:15:34.944Z,8.80
2022-12-08T11:16:35.005Z,10.20
2022-12-08T11:17:34.925Z,10.60
2022-12-08T11:18:34.908Z,8.50
2022-12-08T11:19:34.904Z,8.50
2022-12-08T11:20:34.885Z,10.00
2022-12-08T11:21:34.904Z,8.50
2022-12-08T11:22:34.867Z,7.80
2022-12-08T11:23:34.857Z,8.50
2022-12-08T11:24:37.584Z,8.20
2022-12-08T11:25:34.836Z,8.80
2022-12-08T11:26:34.844Z,8.00
2022-12-08T11:27:34.813Z,8.70
2022-12-08T11:28:34.798Z,9.80
2022-12-08T11:29:34.789Z,7.90
2022-12-08T11:30:34.775Z,8.40
2022-12-08T11:31:34.885Z,7.30
2022-12-08T11:32:34.753Z,8.10
2022-12-08T11:33:34.764Z,7.60
2022-12-08T11:34:34.734Z,8.60
2022-12-08T11:35:34.724Z,7.40
2022-12-08T11:36:34.727Z,7.60
2022-12-08T11:37:35.423Z,8.00
2022-12-08T11:38:34.684Z,7.10
2022-12-08T11:39:34.680Z,8.10
2022-12-08T11:40:34.661Z,7.90
2022-12-08T11:41:34.686Z,8.10
2022-12-08T11:42:34.638Z,7.70
2022-12-08T11:43:34.634Z,8.20
2022-12-08T11:44:34.625Z,7.50
2022-12-08T11:45:34.673Z,7.40
2022-12-08T11:46:34.668Z,6.80
2022-12-08T11:47:34.608Z,8.20
2022-12-08T11:48:34.572Z,7.10
2022-12-08T11:49:34.569Z,8.20
2022-12-08T11:50:34.551Z,7.60
2022-12-08T11:51:34.545Z,7.90
2022-12-08T11:52:34.561Z,8.10
2022-12-08T11:53:34.523Z,8.10
2022-12-08T11:54:34.506Z,8.30
2022-12-08T11:55:37.311Z,8.20
2022-12-08T11:56:34.490Z,7.70
2022-12-08T11:57:34.597Z,7.30
2022-12-08T11:58:34.463Z,8.50
2022-12-08T11:59:34.457Z,7.90
2022-12-08T12:00:34.444Z,8.70
2022-12-08T12:01:39.317Z,7.40
2022-12-08T12:02:34.544Z,9.20
2022-12-08T12:03:34.437Z,8.60
2022-12-08T12:04:34.394Z,8.10
2022-12-08T12:06:03.330Z,9.60
2022-12-08T12:07:34.402Z,7.50
2022-12-08T12:08:34.355Z,7.70
2022-12-08T12:09:34.345Z,8.40
2022-12-08T12:10:34.333Z,7.40
2022-12-08T12:11:34.337Z,9.00
2022-12-08T12:12:39.496Z,8.90
2022-12-08T12:13:34.300Z,7.90
2022-12-08T12:14:34.286Z,9.40
2022-12-08T12:15:34.285Z,9.00
2022-12-08T12:16:34.346Z,6.90
2022-12-08T12:17:34.252Z,6.80
2022-12-08T12:18:34.269Z,7.70
2022-12-08T12:19:34.238Z,9.70
2022-12-08T12:20:34.226Z,7.40
2022-12-08T12:21:34.206Z,8.00
2022-12-08T12:22:34.197Z,8.20
2022-12-08T12:23:34.213Z,7.60
2022-12-08T12:24:35.989Z,8.00
2022-12-08T12:25:34.158Z,8.00
2022-12-08T12:26:34.155Z,9.10
2022-12-08T12:27:34.139Z,8.30
2022-12-08T12:28:34.163Z,8.20
2022-12-08T12:29:34.118Z,7.40
2022-12-08T12:30:34.146Z,8.30
2022-12-08T12:31:34.095Z,8.90
2022-12-08T12:32:34.116Z,8.20
2022-12-08T12:33:34.076Z,9.50
2022-12-08T12:34:34.086Z,8.40
2022-12-08T12:35:34.052Z,9.30
2022-12-08T12:36:34.042Z,7.90
2022-12-08T12:37:34.029Z,7.20
2022-12-08T12:38:34.022Z,8.60
2022-12-08T12:39:34.031Z,7.50
2022-12-08T12:40:34.002Z,8.40
2022-12-08T12:41:33.983Z,7.70
2022-12-08T12:42:33.980Z,7.60
2022-12-08T12:43:33.959Z,7.50
2022-12-08T12:44:33.977Z,7.90
2022-12-08T12:45:33.940Z,8.50
2022-12-08T12:46:34.012Z,7.90
2022-12-08T12:47:33.913Z,7.70
2022-12-08T12:48:33.922Z,8.40
2022-12-08T12:49:33.925Z,8.70
2022-12-08T12:50:34.105Z,8.20
2022-12-08T12:51:33.873Z,9.40
2022-12-08T12:52:33.868Z,8.20
2022-12-08T12:53:33.852Z,8.00
2022-12-08T12:54:33.844Z,8.60
2022-12-08T12:55:33.875Z,9.10
2022-12-08T12:56:33.833Z,9.00
2022-12-08T12:57:33.811Z,9.90
2022-12-08T12:58:33.793Z,7.80